Mount Hersey, Arkansas
Current Conditions -  °F | °C
As of 7:53 PM on Saturday 20 Dec 2014 (Local Time) from KHRO Reporting Station
Overcast Overcast  
Wind Chill: 36°   Ceiling: 2300
Heat Index: 40°   Visibility: 8mi
Dew Point: 39°   Wind: 6mph
Humidity: 97%   Direction: 140°SE
Pressure: 30.2"   Gusts: NA
Location:  36.0414°N, 92.9867°W
Report Text: KHRO 210153Z AUTO 14005KT 8SM OVC023 04/04 A3020 RMK AO2 SLP233 T00440039 $
Loading
Personal Weather Stations






























Interactive Weather Map New forecast layout! Learn more

10-Day Weather Forecast

Advertisements
Track Severe Weather on mobile